Portada
Imágenes satélite Pronóstico 15 díasClimaPredicción Marítima Ciclones Rayo AeropuertosFAQ Noticias Acerca
El tiempo : Europa África América del Norte América del Sur Asia Australia-Oceanía Otros
Idiomas Contacto

Valencia, España

latitud: 39-30N, longitud: 000-28W, altitud: 69 m


METAR: LEVC 301700Z VRB04KT CAVOK 21/17 Q1022 NOSIG
TAF: LEVC 301100Z 3012/3112 11006KT 9999 FEW020 TX25/3012Z TN14/3106Z PROB30 TEMPO 3021/3108 4000 BR BKN010

Hora: 18:28 (17:28 UTC)

Observación

El informe se hizo hace 28 minutos, a las 17:00 UTC
Viento 4 kt con dirección variable
Temperatura 21°C
Humedad 78%
Presión 1022 hPa
Visibilidad 10 km o más
sin nubes por debajo de 1500 m y sin presencia de cumulonimbus.

Cambiar las unidades

Pronóstico

El informe se hizo hace 6 horas y 28 minutos, a las 11:00 UTC
Pronóstico válido del 30 a las 12 UTC al 31 a las 12 UTC
Viento 6 kt del este-sureste
Visibilidad 10 km o más
Escasas nubes a una altura de 2000 ft
Probabilidad 30% :
Temporalmente
del 30 a las 21 UTC al 31 a las 08 UTC
Visibilidad: 4000 m
Cielo nuboso a una altura de 1000 ft
neblina
La información que se ofrece en estas páginas está sujeta a una cláusula de exención de responsabilidad
El tiempo : Europa África América del Norte América del Sur Asia Australia-Oceanía Otros
Imágenes satélite Pronóstico 15 díasClimaPredicción Marítima Ciclones Rayo AeropuertosFAQ Idiomas Contacto Noticias Acerca